Aviation Digital Data Service (ADDS)

Output produced by METARs form (1816 UTC 06 July 2020)
found at http://aviationweather.gov/metar/data/
 
Forecast for: EPDA (DARTOWEK NAVAL , PL)
Text: TAF EPDA 061700Z 0618/0703 25012KT CAVOK
Forecast period: 1800 UTC 06 July 2020 to 0300 UTC 07 July 2020
Forecast type: FROM: standard forecast or significant change
Winds: from the WSW (250 degrees) at 14 MPH (12 knots; 6.2 m/s)
Visibility: 6 or more miles 10+ km)
Ceiling: unknown
Clouds: missing
Weather: NSW  (no significant weather)
Text: TEMPO 0618/0623 25018G30KT SHRA BKN020TCU
Forecast period: 1800 to 2300 UTC 06 July 2020
Forecast type: TEMPORARY: The following changes expected for less than half the time period
Winds: from the WSW (250 degrees) at 21 MPH (18 knots; 9.3 m/s)
gusting to 34 MPH (30 knots; 15.4 m/s)
Visibility: missing
Ceiling: 2000 feet AGL
Clouds: broken clouds at 2000 feet AGL
Weather: SHRA  (rain showers)